sensor_id;sensor_type;location;lat;lon;timestamp;temperature;humidity
11559;DHT22;5835;42.930;25.178;2022-09-03T00:00:54;17.80;99.90
11559;DHT22;5835;42.930;25.178;2022-09-03T00:03:28;17.80;99.90
11559;DHT22;5835;42.930;25.178;2022-09-03T00:06:08;17.70;99.90
11559;DHT22;5835;42.930;25.178;2022-09-03T00:08:41;17.70;99.90
11559;DHT22;5835;42.930;25.178;2022-09-03T00:11:13;17.70;99.90
11559;DHT22;5835;42.930;25.178;2022-09-03T00:13:50;17.70;99.90
11559;DHT22;5835;42.930;25.178;2022-09-03T00:16:22;17.60;99.90
11559;DHT22;5835;42.930;25.178;2022-09-03T00:18:54;17.60;99.90
11559;DHT22;5835;42.930;25.178;2022-09-03T00:21:35;17.60;99.90
11559;DHT22;5835;42.930;25.178;2022-09-03T00:24:06;17.50;99.90
11559;DHT22;5835;42.930;25.178;2022-09-03T00:26:37;17.50;99.90
11559;DHT22;5835;42.930;25.178;2022-09-03T00:29:09;17.50;99.90
11559;DHT22;5835;42.930;25.178;2022-09-03T00:31:41;17.50;99.90
11559;DHT22;5835;42.930;25.178;2022-09-03T00:34:14;17.50;99.90
11559;DHT22;5835;42.930;25.178;2022-09-03T00:36:44;17.50;99.90
11559;DHT22;5835;42.930;25.178;2022-09-03T00:39:14;17.50;99.90
11559;DHT22;5835;42.930;25.178;2022-09-03T00:41:53;17.50;99.90
11559;DHT22;5835;42.930;25.178;2022-09-03T00:44:41;17.50;99.90
11559;DHT22;5835;42.930;25.178;2022-09-03T00:47:20;17.40;99.90
11559;DHT22;5835;42.930;25.178;2022-09-03T00:50:00;17.50;99.90
11559;DHT22;5835;42.930;25.178;2022-09-03T00:52:50;17.40;99.90
11559;DHT22;5835;42.930;25.178;2022-09-03T00:55:29;17.40;99.90
11559;DHT22;5835;42.930;25.178;2022-09-03T00:58:17;17.50;99.90
11559;DHT22;5835;42.930;25.178;2022-09-03T01:00:48;17.40;99.90
11559;DHT22;5835;42.930;25.178;2022-09-03T01:03:25;17.50;99.90
11559;DHT22;5835;42.930;25.178;2022-09-03T01:06:15;17.50;99.90
11559;DHT22;5835;42.930;25.178;2022-09-03T01:09:02;17.40;99.90
11559;DHT22;5835;42.930;25.178;2022-09-03T01:11:41;17.40;99.90
11559;DHT22;5835;42.930;25.178;2022-09-03T01:14:21;17.40;99.90
11559;DHT22;5835;42.930;25.178;2022-09-03T01:16:56;17.40;99.90
11559;DHT22;5835;42.930;25.178;2022-09-03T01:19:56;17.40;99.90
11559;DHT22;5835;42.930;25.178;2022-09-03T01:22:46;17.40;99.90
11559;DHT22;5835;42.930;25.178;2022-09-03T01:25:27;17.40;99.90
11559;DHT22;5835;42.930;25.178;2022-09-03T01:28:23;17.30;99.90
11559;DHT22;5835;42.930;25.178;2022-09-03T01:31:04;17.40;99.90
11559;DHT22;5835;42.930;25.178;2022-09-03T01:33:39;17.30;99.90
11559;DHT22;5835;42.930;25.178;2022-09-03T01:36:15;17.30;99.90
11559;DHT22;5835;42.930;25.178;2022-09-03T01:38:50;17.40;99.90
11559;DHT22;5835;42.930;25.178;2022-09-03T01:41:26;17.30;99.90
11559;DHT22;5835;42.930;25.178;2022-09-03T01:44:23;17.30;99.90
11559;DHT22;5835;42.930;25.178;2022-09-03T01:47:03;17.30;99.90
11559;DHT22;5835;42.930;25.178;2022-09-03T01:49:39;17.20;99.90
11559;DHT22;5835;42.930;25.178;2022-09-03T01:52:12;17.20;99.90
11559;DHT22;5835;42.930;25.178;2022-09-03T01:54:50;17.30;99.90
11559;DHT22;5835;42.930;25.178;2022-09-03T01:57:40;17.20;99.90
11559;DHT22;5835;42.930;25.178;2022-09-03T02:00:13;17.20;99.90
11559;DHT22;5835;42.930;25.178;2022-09-03T02:02:44;17.10;99.90
11559;DHT22;5835;42.930;25.178;2022-09-03T02:05:15;17.10;99.90
11559;DHT22;5835;42.930;25.178;2022-09-03T02:07:45;17.00;99.90
11559;DHT22;5835;42.930;25.178;2022-09-03T02:10:15;17.00;99.90
11559;DHT22;5835;42.930;25.178;2022-09-03T02:12:45;17.00;99.90
11559;DHT22;5835;42.930;25.178;2022-09-03T02:15:17;16.90;99.90
11559;DHT22;5835;42.930;25.178;2022-09-03T02:17:47;16.90;99.90
11559;DHT22;5835;42.930;25.178;2022-09-03T02:20:19;16.90;99.90
11559;DHT22;5835;42.930;25.178;2022-09-03T02:22:47;16.90;99.90
11559;DHT22;5835;42.930;25.178;2022-09-03T02:25:16;16.90;99.90
11559;DHT22;5835;42.930;25.178;2022-09-03T02:27:45;16.90;99.90
11559;DHT22;5835;42.930;25.178;2022-09-03T02:30:16;16.90;99.90
11559;DHT22;5835;42.930;25.178;2022-09-03T02:32:43;16.90;99.90
11559;DHT22;5835;42.930;25.178;2022-09-03T02:35:11;16.90;99.90
11559;DHT22;5835;42.930;25.178;2022-09-03T02:37:39;16.90;99.90
11559;DHT22;5835;42.930;25.178;2022-09-03T02:40:07;17.00;99.90
11559;DHT22;5835;42.930;25.178;2022-09-03T02:42:36;17.00;99.90
11559;DHT22;5835;42.930;25.178;2022-09-03T02:45:09;17.10;99.90
11559;DHT22;5835;42.930;25.178;2022-09-03T02:47:43;17.20;99.90
11559;DHT22;5835;42.930;25.178;2022-09-03T02:50:11;17.10;99.90
11559;DHT22;5835;42.930;25.178;2022-09-03T02:52:39;17.10;99.90
11559;DHT22;5835;42.930;25.178;2022-09-03T02:55:07;16.90;99.90
11559;DHT22;5835;42.930;25.178;2022-09-03T02:57:35;16.90;99.90
11559;DHT22;5835;42.930;25.178;2022-09-03T03:00:03;16.80;99.90
11559;DHT22;5835;42.930;25.178;2022-09-03T03:02:31;16.80;99.90
11559;DHT22;5835;42.930;25.178;2022-09-03T03:05:01;16.80;99.90
11559;DHT22;5835;42.930;25.178;2022-09-03T03:07:30;16.80;99.90
11559;DHT22;5835;42.930;25.178;2022-09-03T03:09:58;16.80;99.90
11559;DHT22;5835;42.930;25.178;2022-09-03T03:12:26;16.70;99.90
11559;DHT22;5835;42.930;25.178;2022-09-03T03:14:54;16.70;99.90
11559;DHT22;5835;42.930;25.178;2022-09-03T03:17:22;16.70;99.90
11559;DHT22;5835;42.930;25.178;2022-09-03T03:19:49;16.70;99.90
11559;DHT22;5835;42.930;25.178;2022-09-03T03:22:18;16.70;99.90
11559;DHT22;5835;42.930;25.178;2022-09-03T03:24:46;16.70;99.90
11559;DHT22;5835;42.930;25.178;2022-09-03T03:27:15;16.70;99.90
11559;DHT22;5835;42.930;25.178;2022-09-03T03:29:43;16.70;99.90
11559;DHT22;5835;42.930;25.178;2022-09-03T03:32:11;16.70;99.90
11559;DHT22;5835;42.930;25.178;2022-09-03T03:34:38;16.80;99.90
11559;DHT22;5835;42.930;25.178;2022-09-03T03:37:06;16.70;99.90
11559;DHT22;5835;42.930;25.178;2022-09-03T03:39:35;16.80;99.90
11559;DHT22;5835;42.930;25.178;2022-09-03T03:42:02;16.70;99.90
11559;DHT22;5835;42.930;25.178;2022-09-03T03:44:29;16.80;99.90
11559;DHT22;5835;42.930;25.178;2022-09-03T03:46:57;16.80;99.90
11559;DHT22;5835;42.930;25.178;2022-09-03T03:49:24;16.70;99.90
11559;DHT22;5835;42.930;25.178;2022-09-03T03:51:52;16.80;99.90
11559;DHT22;5835;42.930;25.178;2022-09-03T03:54:19;16.70;99.90
11559;DHT22;5835;42.930;25.178;2022-09-03T03:56:49;16.70;99.90
11559;DHT22;5835;42.930;25.178;2022-09-03T03:59:16;16.80;99.90
11559;DHT22;5835;42.930;25.178;2022-09-03T04:01:44;16.70;99.90
11559;DHT22;5835;42.930;25.178;2022-09-03T04:04:11;16.80;99.90
11559;DHT22;5835;42.930;25.178;2022-09-03T04:06:39;16.80;99.90
11559;DHT22;5835;42.930;25.178;2022-09-03T04:09:07;16.80;99.90
11559;DHT22;5835;42.930;25.178;2022-09-03T04:11:34;16.80;99.90
11559;DHT22;5835;42.930;25.178;2022-09-03T04:14:03;16.70;99.90
11559;DHT22;5835;42.930;25.178;2022-09-03T04:16:31;16.80;99.90
11559;DHT22;5835;42.930;25.178;2022-09-03T04:18:59;16.70;99.90
11559;DHT22;5835;42.930;25.178;2022-09-03T04:21:28;16.70;99.90
11559;DHT22;5835;42.930;25.178;2022-09-03T04:23:57;16.70;99.90
11559;DHT22;5835;42.930;25.178;2022-09-03T04:26:26;16.70;99.90
11559;DHT22;5835;42.930;25.178;2022-09-03T04:28:56;16.70;99.90
11559;DHT22;5835;42.930;25.178;2022-09-03T04:31:25;16.70;99.90
11559;DHT22;5835;42.930;25.178;2022-09-03T04:33:53;16.80;99.90
11559;DHT22;5835;42.930;25.178;2022-09-03T04:36:21;16.80;99.90
11559;DHT22;5835;42.930;25.178;2022-09-03T04:38:51;16.80;99.90
11559;DHT22;5835;42.930;25.178;2022-09-03T04:41:21;16.80;99.90
11559;DHT22;5835;42.930;25.178;2022-09-03T04:43:50;16.80;99.90
11559;DHT22;5835;42.930;25.178;2022-09-03T04:46:18;16.80;99.90
11559;DHT22;5835;42.930;25.178;2022-09-03T04:48:56;16.70;99.90
11559;DHT22;5835;42.930;25.178;2022-09-03T04:51:25;16.70;99.90
11559;DHT22;5835;42.930;25.178;2022-09-03T04:53:54;16.60;99.90
11559;DHT22;5835;42.930;25.178;2022-09-03T04:56:24;16.50;99.90
11559;DHT22;5835;42.930;25.178;2022-09-03T04:58:54;16.60;99.90
11559;DHT22;5835;42.930;25.178;2022-09-03T05:01:24;16.50;99.90
11559;DHT22;5835;42.930;25.178;2022-09-03T05:03:52;16.50;99.90
11559;DHT22;5835;42.930;25.178;2022-09-03T05:06:21;16.40;99.90
11559;DHT22;5835;42.930;25.178;2022-09-03T05:08:51;16.40;99.90
11559;DHT22;5835;42.930;25.178;2022-09-03T05:11:19;16.40;99.90
11559;DHT22;5835;42.930;25.178;2022-09-03T05:13:48;16.40;99.90
11559;DHT22;5835;42.930;25.178;2022-09-03T05:16:17;16.40;99.90
11559;DHT22;5835;42.930;25.178;2022-09-03T05:18:45;16.40;99.90
11559;DHT22;5835;42.930;25.178;2022-09-03T05:21:14;16.40;99.90
11559;DHT22;5835;42.930;25.178;2022-09-03T05:23:44;16.50;99.90
11559;DHT22;5835;42.930;25.178;2022-09-03T05:26:14;16.60;99.90
11559;DHT22;5835;42.930;25.178;2022-09-03T05:28:42;16.60;99.90
11559;DHT22;5835;42.930;25.178;2022-09-03T05:31:11;16.70;99.90
11559;DHT22;5835;42.930;25.178;2022-09-03T05:33:40;16.70;99.90
11559;DHT22;5835;42.930;25.178;2022-09-03T05:36:11;16.60;99.90
11559;DHT22;5835;42.930;25.178;2022-09-03T05:38:39;16.80;99.90
11559;DHT22;5835;42.930;25.178;2022-09-03T05:41:10;16.80;99.90
11559;DHT22;5835;42.930;25.178;2022-09-03T05:43:38;16.80;99.90
11559;DHT22;5835;42.930;25.178;2022-09-03T05:46:07;16.80;99.90
11559;DHT22;5835;42.930;25.178;2022-09-03T05:48:37;16.80;99.90
11559;DHT22;5835;42.930;25.178;2022-09-03T05:51:06;16.80;99.90
11559;DHT22;5835;42.930;25.178;2022-09-03T05:53:35;16.70;99.90
11559;DHT22;5835;42.930;25.178;2022-09-03T05:56:06;16.60;99.90
11559;DHT22;5835;42.930;25.178;2022-09-03T05:58:38;16.70;99.90
11559;DHT22;5835;42.930;25.178;2022-09-03T06:01:12;16.70;99.90
11559;DHT22;5835;42.930;25.178;2022-09-03T06:03:40;16.60;99.90
11559;DHT22;5835;42.930;25.178;2022-09-03T06:06:08;16.60;99.90
11559;DHT22;5835;42.930;25.178;2022-09-03T06:08:37;16.60;99.90
11559;DHT22;5835;42.930;25.178;2022-09-03T06:11:05;16.60;99.90
11559;DHT22;5835;42.930;25.178;2022-09-03T06:13:33;16.60;99.90
11559;DHT22;5835;42.930;25.178;2022-09-03T06:16:05;16.60;99.90
11559;DHT22;5835;42.930;25.178;2022-09-03T06:18:33;16.60;99.90
11559;DHT22;5835;42.930;25.178;2022-09-03T06:21:01;16.70;99.90
11559;DHT22;5835;42.930;25.178;2022-09-03T06:23:30;16.60;99.90
11559;DHT22;5835;42.930;25.178;2022-09-03T06:26:03;16.80;99.90
11559;DHT22;5835;42.930;25.178;2022-09-03T06:28:31;16.80;99.90
11559;DHT22;5835;42.930;25.178;2022-09-03T06:31:03;16.90;99.90
11559;DHT22;5835;42.930;25.178;2022-09-03T06:33:32;16.70;99.90
11559;DHT22;5835;42.930;25.178;2022-09-03T06:36:01;16.70;99.90
11559;DHT22;5835;42.930;25.178;2022-09-03T06:38:30;16.70;99.90
11559;DHT22;5835;42.930;25.178;2022-09-03T06:41:02;16.80;99.90
11559;DHT22;5835;42.930;25.178;2022-09-03T06:43:31;16.70;99.90
11559;DHT22;5835;42.930;25.178;2022-09-03T06:46:03;16.70;99.90
11559;DHT22;5835;42.930;25.178;2022-09-03T06:48:32;16.70;99.90
11559;DHT22;5835;42.930;25.178;2022-09-03T06:51:01;16.80;99.90
11559;DHT22;5835;42.930;25.178;2022-09-03T06:53:31;16.80;99.90
11559;DHT22;5835;42.930;25.178;2022-09-03T06:56:00;16.80;99.90
11559;DHT22;5835;42.930;25.178;2022-09-03T06:58:29;16.90;99.90
11559;DHT22;5835;42.930;25.178;2022-09-03T07:01:02;16.90;99.90
11559;DHT22;5835;42.930;25.178;2022-09-03T07:03:31;16.90;99.90
11559;DHT22;5835;42.930;25.178;2022-09-03T07:06:03;16.90;99.90
11559;DHT22;5835;42.930;25.178;2022-09-03T07:08:31;16.90;99.90
11559;DHT22;5835;42.930;25.178;2022-09-03T07:10:59;16.90;99.90
11559;DHT22;5835;42.930;25.178;2022-09-03T07:13:28;16.90;99.90
11559;DHT22;5835;42.930;25.178;2022-09-03T07:16:00;16.90;99.90
11559;DHT22;5835;42.930;25.178;2022-09-03T07:18:30;16.90;99.90
11559;DHT22;5835;42.930;25.178;2022-09-03T07:20:58;16.90;99.90
11559;DHT22;5835;42.930;25.178;2022-09-03T07:23:27;17.00;99.90
11559;DHT22;5835;42.930;25.178;2022-09-03T07:25:55;17.10;99.90
11559;DHT22;5835;42.930;25.178;2022-09-03T07:28:24;17.00;99.90
11559;DHT22;5835;42.930;25.178;2022-09-03T07:30:52;17.00;99.90
11559;DHT22;5835;42.930;25.178;2022-09-03T07:33:20;17.10;99.90
11559;DHT22;5835;42.930;25.178;2022-09-03T07:35:49;17.20;99.90
11559;DHT22;5835;42.930;25.178;2022-09-03T07:38:17;17.30;99.90
11559;DHT22;5835;42.930;25.178;2022-09-03T07:40:45;17.40;99.90
11559;DHT22;5835;42.930;25.178;2022-09-03T07:43:13;17.30;99.90
11559;DHT22;5835;42.930;25.178;2022-09-03T07:45:41;17.50;99.90
11559;DHT22;5835;42.930;25.178;2022-09-03T07:48:10;17.60;99.90
11559;DHT22;5835;42.930;25.178;2022-09-03T07:50:38;17.50;99.90
11559;DHT22;5835;42.930;25.178;2022-09-03T07:53:07;17.50;99.90
11559;DHT22;5835;42.930;25.178;2022-09-03T07:55:34;17.60;99.90
11559;DHT22;5835;42.930;25.178;2022-09-03T07:58:01;17.70;99.90
11559;DHT22;5835;42.930;25.178;2022-09-03T08:00:29;17.80;99.90
11559;DHT22;5835;42.930;25.178;2022-09-03T08:02:58;17.70;99.90
11559;DHT22;5835;42.930;25.178;2022-09-03T08:05:31;17.80;99.90
11559;DHT22;5835;42.930;25.178;2022-09-03T08:07:59;17.80;99.90
11559;DHT22;5835;42.930;25.178;2022-09-03T08:10:28;17.70;99.90
11559;DHT22;5835;42.930;25.178;2022-09-03T08:12:57;17.80;99.90
11559;DHT22;5835;42.930;25.178;2022-09-03T08:15:25;17.70;99.90
11559;DHT22;5835;42.930;25.178;2022-09-03T08:17:53;17.70;99.90
11559;DHT22;5835;42.930;25.178;2022-09-03T08:20:20;17.70;99.90
11559;DHT22;5835;42.930;25.178;2022-09-03T08:22:48;17.50;99.90
11559;DHT22;5835;42.930;25.178;2022-09-03T08:25:16;17.50;99.90
11559;DHT22;5835;42.930;25.178;2022-09-03T08:27:45;17.60;99.90
11559;DHT22;5835;42.930;25.178;2022-09-03T08:30:12;17.60;99.90
11559;DHT22;5835;42.930;25.178;2022-09-03T08:32:40;17.40;99.90
11559;DHT22;5835;42.930;25.178;2022-09-03T08:35:08;17.40;99.90
11559;DHT22;5835;42.930;25.178;2022-09-03T08:37:36;17.50;99.90
11559;DHT22;5835;42.930;25.178;2022-09-03T08:40:04;17.30;99.90
11559;DHT22;5835;42.930;25.178;2022-09-03T08:42:54;17.40;99.90
11559;DHT22;5835;42.930;25.178;2022-09-03T08:45:25;17.50;99.90
11559;DHT22;5835;42.930;25.178;2022-09-03T08:48:02;17.50;99.90
11559;DHT22;5835;42.930;25.178;2022-09-03T08:50:33;17.70;99.90
11559;DHT22;5835;42.930;25.178;2022-09-03T08:53:07;17.80;99.90
11559;DHT22;5835;42.930;25.178;2022-09-03T08:55:38;18.00;99.90
11559;DHT22;5835;42.930;25.178;2022-09-03T08:58:12;18.40;99.90
11559;DHT22;5835;42.930;25.178;2022-09-03T09:00:47;18.20;99.90
11559;DHT22;5835;42.930;25.178;2022-09-03T09:03:33;18.60;99.90
11559;DHT22;5835;42.930;25.178;2022-09-03T09:06:09;18.30;99.90
11559;DHT22;5835;42.930;25.178;2022-09-03T09:08:47;18.40;99.90
11559;DHT22;5835;42.930;25.178;2022-09-03T09:11:24;18.40;99.90
11559;DHT22;5835;42.930;25.178;2022-09-03T09:14:00;18.50;99.90
11559;DHT22;5835;42.930;25.178;2022-09-03T09:16:36;18.60;99.90
11559;DHT22;5835;42.930;25.178;2022-09-03T09:19:15;18.50;99.90
11559;DHT22;5835;42.930;25.178;2022-09-03T09:21:47;18.30;99.90
11559;DHT22;5835;42.930;25.178;2022-09-03T09:24:21;18.50;99.90
11559;DHT22;5835;42.930;25.178;2022-09-03T09:26:50;18.50;99.90
11559;DHT22;5835;42.930;25.178;2022-09-03T09:29:24;18.80;99.90
11559;DHT22;5835;42.930;25.178;2022-09-03T09:31:53;18.50;99.90
11559;DHT22;5835;42.930;25.178;2022-09-03T09:34:21;18.90;99.90
11559;DHT22;5835;42.930;25.178;2022-09-03T09:36:51;19.10;99.90
11559;DHT22;5835;42.930;25.178;2022-09-03T09:39:19;18.80;99.90
11559;DHT22;5835;42.930;25.178;2022-09-03T09:42:00;18.80;99.90
11559;DHT22;5835;42.930;25.178;2022-09-03T09:44:36;18.70;99.90
11559;DHT22;5835;42.930;25.178;2022-09-03T09:47:07;18.90;99.90
11559;DHT22;5835;42.930;25.178;2022-09-03T09:49:42;18.70;99.90
11559;DHT22;5835;42.930;25.178;2022-09-03T09:52:17;18.70;99.90
11559;DHT22;5835;42.930;25.178;2022-09-03T09:54:47;18.60;99.90
11559;DHT22;5835;42.930;25.178;2022-09-03T09:57:16;18.80;99.90
11559;DHT22;5835;42.930;25.178;2022-09-03T09:59:46;18.80;99.90
11559;DHT22;5835;42.930;25.178;2022-09-03T10:02:19;19.00;99.90
11559;DHT22;5835;42.930;25.178;2022-09-03T10:04:51;19.00;99.90
11559;DHT22;5835;42.930;25.178;2022-09-03T10:07:27;19.30;99.90
11559;DHT22;5835;42.930;25.178;2022-09-03T10:09:59;18.90;99.90
11559;DHT22;5835;42.930;25.178;2022-09-03T10:12:31;19.20;99.90
11559;DHT22;5835;42.930;25.178;2022-09-03T10:15:08;19.10;99.90
11559;DHT22;5835;42.930;25.178;2022-09-03T10:17:46;19.40;99.90
11559;DHT22;5835;42.930;25.178;2022-09-03T10:20:21;19.40;99.90
11559;DHT22;5835;42.930;25.178;2022-09-03T10:23:01;19.80;99.90
11559;DHT22;5835;42.930;25.178;2022-09-03T10:25:37;19.70;99.90
11559;DHT22;5835;42.930;25.178;2022-09-03T10:28:08;19.80;99.90
11559;DHT22;5835;42.930;25.178;2022-09-03T10:30:56;19.80;99.90
11559;DHT22;5835;42.930;25.178;2022-09-03T10:33:31;20.20;99.90
11559;DHT22;5835;42.930;25.178;2022-09-03T10:36:09;19.90;99.90
11559;DHT22;5835;42.930;25.178;2022-09-03T10:38:39;20.00;99.90
11559;DHT22;5835;42.930;25.178;2022-09-03T10:41:18;20.30;99.90
11559;DHT22;5835;42.930;25.178;2022-09-03T10:44:00;20.50;99.90
11559;DHT22;5835;42.930;25.178;2022-09-03T10:46:42;20.30;99.90
11559;DHT22;5835;42.930;25.178;2022-09-03T10:49:41;20.10;99.90
11559;DHT22;5835;42.930;25.178;2022-09-03T10:52:19;19.80;99.90
11559;DHT22;5835;42.930;25.178;2022-09-03T10:54:58;20.10;99.90
11559;DHT22;5835;42.930;25.178;2022-09-03T10:57:38;20.00;99.90
11559;DHT22;5835;42.930;25.178;2022-09-03T11:00:10;20.00;99.90
11559;DHT22;5835;42.930;25.178;2022-09-03T11:03:04;19.90;99.90
11559;DHT22;5835;42.930;25.178;2022-09-03T11:05:40;19.70;99.90
11559;DHT22;5835;42.930;25.178;2022-09-03T11:08:13;19.60;99.90
11559;DHT22;5835;42.930;25.178;2022-09-03T11:10:47;19.60;99.90
11559;DHT22;5835;42.930;25.178;2022-09-03T11:13:21;19.40;99.90
11559;DHT22;5835;42.930;25.178;2022-09-03T11:15:53;19.40;99.90
11559;DHT22;5835;42.930;25.178;2022-09-03T11:18:26;19.30;99.90
11559;DHT22;5835;42.930;25.178;2022-09-03T11:20:58;19.20;99.90
11559;DHT22;5835;42.930;25.178;2022-09-03T11:23:31;19.30;99.90
11559;DHT22;5835;42.930;25.178;2022-09-03T11:26:04;19.30;99.90
11559;DHT22;5835;42.930;25.178;2022-09-03T11:28:39;19.60;99.90
11559;DHT22;5835;42.930;25.178;2022-09-03T11:31:21;19.80;99.90
11559;DHT22;5835;42.930;25.178;2022-09-03T11:33:55;19.70;99.90
11559;DHT22;5835;42.930;25.178;2022-09-03T11:36:30;19.50;99.90
11559;DHT22;5835;42.930;25.178;2022-09-03T11:38:58;19.40;99.90
11559;DHT22;5835;42.930;25.178;2022-09-03T11:41:27;19.40;99.90
11559;DHT22;5835;42.930;25.178;2022-09-03T11:44:15;19.50;99.90
11559;DHT22;5835;42.930;25.178;2022-09-03T11:46:53;19.60;99.90
11559;DHT22;5835;42.930;25.178;2022-09-03T11:49:28;19.60;99.90
11559;DHT22;5835;42.930;25.178;2022-09-03T11:51:59;19.60;99.90
11559;DHT22;5835;42.930;25.178;2022-09-03T11:54:31;19.50;99.90
11559;DHT22;5835;42.930;25.178;2022-09-03T11:57:09;19.60;99.90
11559;DHT22;5835;42.930;25.178;2022-09-03T11:59:39;19.60;99.90
11559;DHT22;5835;42.930;25.178;2022-09-03T12:02:19;19.60;99.90
11559;DHT22;5835;42.930;25.178;2022-09-03T12:04:56;19.50;99.90
11559;DHT22;5835;42.930;25.178;2022-09-03T12:07:41;19.10;99.90
11559;DHT22;5835;42.930;25.178;2022-09-03T12:10:24;19.10;99.90
11559;DHT22;5835;42.930;25.178;2022-09-03T12:13:13;18.90;99.90
11559;DHT22;5835;42.930;25.178;2022-09-03T12:16:06;19.00;99.90
11559;DHT22;5835;42.930;25.178;2022-09-03T12:18:39;19.10;99.90
11559;DHT22;5835;42.930;25.178;2022-09-03T12:21:10;19.10;99.90
11559;DHT22;5835;42.930;25.178;2022-09-03T12:23:41;19.20;99.90
11559;DHT22;5835;42.930;25.178;2022-09-03T12:26:11;19.30;99.90
11559;DHT22;5835;42.930;25.178;2022-09-03T12:28:41;19.40;99.90
11559;DHT22;5835;42.930;25.178;2022-09-03T12:31:14;19.30;99.90
11559;DHT22;5835;42.930;25.178;2022-09-03T12:33:48;19.20;99.90
11559;DHT22;5835;42.930;25.178;2022-09-03T12:36:17;19.30;99.90
11559;DHT22;5835;42.930;25.178;2022-09-03T12:38:45;19.20;99.90
11559;DHT22;5835;42.930;25.178;2022-09-03T12:41:25;19.10;99.90
11559;DHT22;5835;42.930;25.178;2022-09-03T12:43:54;19.20;99.90
11559;DHT22;5835;42.930;25.178;2022-09-03T12:46:25;19.30;99.90
11559;DHT22;5835;42.930;25.178;2022-09-03T12:48:57;19.30;99.90
11559;DHT22;5835;42.930;25.178;2022-09-03T12:51:37;19.40;99.90
11559;DHT22;5835;42.930;25.178;2022-09-03T12:54:07;19.40;99.90
11559;DHT22;5835;42.930;25.178;2022-09-03T12:56:41;19.40;99.90
11559;DHT22;5835;42.930;25.178;2022-09-03T12:59:11;19.50;99.90
11559;DHT22;5835;42.930;25.178;2022-09-03T13:01:44;19.40;99.90
11559;DHT22;5835;42.930;25.178;2022-09-03T13:04:15;19.50;99.90
11559;DHT22;5835;42.930;25.178;2022-09-03T13:06:50;19.50;99.90
11559;DHT22;5835;42.930;25.178;2022-09-03T13:09:24;19.30;99.90
11559;DHT22;5835;42.930;25.178;2022-09-03T13:11:55;19.20;99.90
11559;DHT22;5835;42.930;25.178;2022-09-03T13:14:24;19.10;99.90
11559;DHT22;5835;42.930;25.178;2022-09-03T13:17:13;19.10;99.90
11559;DHT22;5835;42.930;25.178;2022-09-03T13:19:55;19.00;99.90
11559;DHT22;5835;42.930;25.178;2022-09-03T13:22:35;19.00;99.90
11559;DHT22;5835;42.930;25.178;2022-09-03T13:25:13;18.80;99.90
11559;DHT22;5835;42.930;25.178;2022-09-03T13:27:51;18.80;99.90
11559;DHT22;5835;42.930;25.178;2022-09-03T13:30:22;18.70;99.90
11559;DHT22;5835;42.930;25.178;2022-09-03T13:33:01;18.70;99.90
11559;DHT22;5835;42.930;25.178;2022-09-03T13:35:37;18.70;99.90
11559;DHT22;5835;42.930;25.178;2022-09-03T13:38:18;18.60;99.90
11559;DHT22;5835;42.930;25.178;2022-09-03T13:40:53;18.60;99.90
11559;DHT22;5835;42.930;25.178;2022-09-03T13:43:29;18.50;99.90
11559;DHT22;5835;42.930;25.178;2022-09-03T13:46:02;18.40;99.90
11559;DHT22;5835;42.930;25.178;2022-09-03T13:48:37;18.50;99.90
11559;DHT22;5835;42.930;25.178;2022-09-03T13:51:26;18.50;99.90
11559;DHT22;5835;42.930;25.178;2022-09-03T13:54:04;18.40;99.90
11559;DHT22;5835;42.930;25.178;2022-09-03T13:56:50;18.50;99.90
11559;DHT22;5835;42.930;25.178;2022-09-03T13:59:28;18.60;99.90
11559;DHT22;5835;42.930;25.178;2022-09-03T14:02:15;18.40;99.90
11559;DHT22;5835;42.930;25.178;2022-09-03T14:04:54;18.50;99.90
11559;DHT22;5835;42.930;25.178;2022-09-03T14:07:27;18.80;99.90
11559;DHT22;5835;42.930;25.178;2022-09-03T14:10:08;18.70;99.90
11559;DHT22;5835;42.930;25.178;2022-09-03T14:12:45;18.50;99.90
11559;DHT22;5835;42.930;25.178;2022-09-03T14:15:19;18.60;99.90
11559;DHT22;5835;42.930;25.178;2022-09-03T14:17:56;18.50;99.90
11559;DHT22;5835;42.930;25.178;2022-09-03T14:20:28;18.60;99.90
11559;DHT22;5835;42.930;25.178;2022-09-03T14:23:01;18.80;99.90
11559;DHT22;5835;42.930;25.178;2022-09-03T14:25:31;18.70;99.90
11559;DHT22;5835;42.930;25.178;2022-09-03T14:28:13;18.70;99.90
11559;DHT22;5835;42.930;25.178;2022-09-03T14:30:47;18.60;99.90
11559;DHT22;5835;42.930;25.178;2022-09-03T14:33:21;18.50;99.90
11559;DHT22;5835;42.930;25.178;2022-09-03T14:36:06;18.50;99.90
11559;DHT22;5835;42.930;25.178;2022-09-03T14:38:56;18.40;99.90
11559;DHT22;5835;42.930;25.178;2022-09-03T14:41:56;18.40;99.90
11559;DHT22;5835;42.930;25.178;2022-09-03T14:47:52;18.40;99.90
11559;DHT22;5835;42.930;25.178;2022-09-03T14:50:37;18.40;99.90
11559;DHT22;5835;42.930;25.178;2022-09-03T14:53:19;18.40;99.90
11559;DHT22;5835;42.930;25.178;2022-09-03T14:56:02;18.30;99.90
11559;DHT22;5835;42.930;25.178;2022-09-03T14:58:47;18.30;99.90
11559;DHT22;5835;42.930;25.178;2022-09-03T15:01:25;18.30;99.90
11559;DHT22;5835;42.930;25.178;2022-09-03T15:07:15;18.40;99.90
11559;DHT22;5835;42.930;25.178;2022-09-03T15:09:55;18.50;99.90
11559;DHT22;5835;42.930;25.178;2022-09-03T15:12:33;18.50;99.90
11559;DHT22;5835;42.930;25.178;2022-09-03T15:15:09;18.40;99.90
11559;DHT22;5835;42.930;25.178;2022-09-03T15:17:59;18.30;99.90
11559;DHT22;5835;42.930;25.178;2022-09-03T15:20:35;18.50;99.90
11559;DHT22;5835;42.930;25.178;2022-09-03T15:23:22;18.50;99.90
11559;DHT22;5835;42.930;25.178;2022-09-03T15:28:49;18.40;99.90
11559;DHT22;5835;42.930;25.178;2022-09-03T15:31:25;18.40;99.90
11559;DHT22;5835;42.930;25.178;2022-09-03T15:33:58;18.40;99.90
11559;DHT22;5835;42.930;25.178;2022-09-03T15:36:35;18.40;99.90
11559;DHT22;5835;42.930;25.178;2022-09-03T15:39:06;18.60;99.90
11559;DHT22;5835;42.930;25.178;2022-09-03T15:41:45;18.50;99.90
11559;DHT22;5835;42.930;25.178;2022-09-03T15:44:14;18.70;99.90
11559;DHT22;5835;42.930;25.178;2022-09-03T15:46:53;18.70;99.90
11559;DHT22;5835;42.930;25.178;2022-09-03T15:49:32;18.80;99.90
11559;DHT22;5835;42.930;25.178;2022-09-03T15:52:08;18.90;99.90
11559;DHT22;5835;42.930;25.178;2022-09-03T15:54:42;19.10;99.90
11559;DHT22;5835;42.930;25.178;2022-09-03T15:57:16;19.00;99.90
11559;DHT22;5835;42.930;25.178;2022-09-03T15:59:51;19.00;99.90
11559;DHT22;5835;42.930;25.178;2022-09-03T16:02:29;19.00;99.90
11559;DHT22;5835;42.930;25.178;2022-09-03T16:05:06;19.10;99.90
11559;DHT22;5835;42.930;25.178;2022-09-03T16:07:52;19.10;99.90
11559;DHT22;5835;42.930;25.178;2022-09-03T16:10:36;19.10;99.90
11559;DHT22;5835;42.930;25.178;2022-09-03T16:13:19;19.10;99.90
11559;DHT22;5835;42.930;25.178;2022-09-03T16:15:57;19.30;99.90
11559;DHT22;5835;42.930;25.178;2022-09-03T16:18:31;19.30;99.90